Time;durP1;ratioP1;P1;durP2;ratioP2;P2;SDS_P1;SDS_P2;PMS_P1;PMS_P2;Temp;Humidity;BMP_temperature;BMP_pressure;BME280_temperature;BME280_humidity;BME280_pressure;Samples;Min_cycle;Max_cycle;Signal;HPM_P1;HPM_P2
2023/08/02 00:01:13;;;;;;;6.45;5.75;;;;;;;;;;5029954;28;20582;-64
2023/08/02 00:03:40;;;;;;;5.68;5.18;;;;;;;;;;5029848;28;20235;-64
2023/08/02 00:06:06;;;;;;;3.92;3.67;;;;;;;;;;5029897;28;20199;-64
2023/08/02 00:08:33;;;;;;;4.45;4.15;;;;;;;;;;5029717;28;20195;-65
2023/08/02 00:10:59;;;;;;;5.20;4.90;;;;;;;;;;5030080;28;20227;-64
2023/08/02 00:13:27;;;;;;;4.68;4.25;;;;;;;;;;5029833;28;20285;-64
2023/08/02 00:15:54;;;;;;;4.72;4.32;;;;;;;;;;5030166;28;20231;-65
2023/08/02 00:18:20;;;;;;;5.03;4.57;;;;;;;;;;5029456;28;20689;-65
2023/08/02 00:20:48;;;;;;;5.00;4.60;;;;;;;22.74;nan;94479.13;5029150;28;20200;-65
2023/08/02 00:23:15;;;;;;;4.60;4.20;;;;;;;;;;5029074;28;20199;-63
2023/08/02 00:25:41;;;;;;;4.57;4.18;;;;;;;;;;5030100;28;20204;-64
2023/08/02 00:28:07;;;;;;;4.78;4.43;;;;;;;;;;5029635;28;20196;-64
2023/08/02 00:30:43;;;;;;;10.20;8.52;;;;;;;;;;5029745;28;20229;-65
2023/08/02 00:33:10;;;;;;;7.35;6.55;;;;;;;;;;5029558;28;20673;-64
2023/08/02 00:35:36;;;;;;;5.50;5.10;;;;;;;;;;5028481;28;20594;-62
2023/08/02 00:38:03;;;;;;;9.70;7.32;;;;;;;;;;5028103;28;20259;-61
2023/08/02 00:40:29;;;;;;;9.02;5.22;;;;;;;;;;5028849;28;20589;-64
2023/08/02 00:42:56;;;;;;;4.88;4.32;;;;;;;;;;5029259;28;20634;-66
2023/08/02 00:45:22;;;;;;;8.48;5.28;;;;;;;;;;5027793;28;20219;-64
2023/08/02 00:47:50;;;;;;;10.18;8.10;;;;;;;;;;5028409;28;20199;-63
2023/08/02 00:50:17;;;;;;;7.38;6.75;;;;;;;;;;5027987;28;20752;-65
2023/08/02 00:52:43;;;;;;;5.80;5.35;;;;;;;;;;5027701;28;20247;-65
2023/08/02 00:55:10;;;;;;;4.43;4.13;;;;;;;;;;5028600;28;20211;-64
2023/08/02 00:57:36;;;;;;;4.82;4.53;;;;;;;;;;5028327;28;20289;-67
2023/08/02 01:00:03;;;;;;;4.40;4.10;;;;;;;;;;5028462;28;20277;-63
2023/08/02 01:02:29;;;;;;;8.23;4.35;;;;;;;;;;5028195;28;20223;-65
2023/08/02 01:04:57;;;;;;;5.13;4.55;;;;;;;;;;5027419;28;20251;-65
2023/08/02 01:07:27;;;;;;;5.13;4.68;;;;;;;;;;5028231;28;20638;-65
2023/08/02 01:09:55;;;;;;;8.05;4.50;;;;;;;;;;5027764;28;20208;-65
2023/08/02 01:12:23;;;;;;;5.15;4.78;;;;;;;;;;5027530;28;20281;-66
2023/08/02 01:14:51;;;;;;;4.90;4.60;;;;;;;;;;5026177;28;20299;-64
2023/08/02 01:17:18;;;;;;;5.60;5.20;;;;;;;;;;5026953;28;20289;-63
2023/08/02 01:19:44;;;;;;;5.40;4.65;;;;;;;;;;5027136;28;20231;-65
2023/08/02 01:22:12;;;;;;;4.82;4.38;;;;;;;;;;5026674;28;20269;-63
2023/08/02 01:24:38;;;;;;;5.20;4.40;;;;;;;;;;5026462;28;20747;-63
2023/08/02 01:27:07;;;;;;;4.18;3.85;;;;;;;;;;5027182;28;20199;-66
2023/08/02 01:29:34;;;;;;;6.32;4.88;;;;;;;;;;5026701;28;20756;-65
2023/08/02 01:32:01;;;;;;;4.95;4.40;;;;;;;;;;5026997;28;20261;-65
2023/08/02 01:34:28;;;;;;;4.47;4.18;;;;;;;;;;5026372;28;20617;-65
2023/08/02 01:36:54;;;;;;;6.18;4.30;;;;;;;;;;5026577;28;20211;-66
2023/08/02 01:39:22;;;;;;;5.38;4.97;;;;;;;;;;5026162;28;20701;-64
2023/08/02 01:41:49;;;;;;;4.78;4.35;;;;;;;;;;5025577;28;20214;-63
2023/08/02 01:44:15;;;;;;;4.50;4.20;;;;;;;;;;5027324;28;20212;-64
2023/08/02 01:46:41;;;;;;;7.30;4.85;;;;;;;;;;5027545;28;20211;-64
2023/08/02 01:49:08;;;;;;;5.65;4.47;;;;;;;;;;5027320;28;20219;-65
2023/08/02 01:51:34;;;;;;;5.80;4.82;;;;;;;;;;5027453;28;20219;-65
2023/08/02 01:54:01;;;;;;;5.55;5.05;;;;;;;;;;5027935;28;20666;-65
2023/08/02 01:56:29;;;;;;;5.38;4.97;;;;;;;;;;5027623;28;20203;-66
2023/08/02 01:58:55;;;;;;;4.72;4.43;;;;;;;;;;5027289;28;20281;-65
2023/08/02 02:01:22;;;;;;;7.68;4.82;;;;;;;;;;5026137;28;20203;-66
2023/08/02 02:03:48;;;;;;;5.93;5.32;;;;;;;;;;5026582;28;20239;-65
2023/08/02 02:06:14;;;;;;;6.10;4.53;;;;;;;;;;5027631;28;20203;-66
2023/08/02 02:08:41;;;;;;;5.40;5.00;;;;;;;;;;5026721;28;20207;-63
2023/08/02 02:11:07;;;;;;;5.75;4.93;;;;;;;;;;5027508;28;20204;-64
2023/08/02 02:13:35;;;;;;;5.97;5.18;;;;;;;21.53;nan;94464.88;5027469;28;20239;-66
2023/08/02 02:16:02;;;;;;;5.75;5.05;;;;;;;;;;5027544;28;20199;-64
2023/08/02 02:18:28;;;;;;;5.07;4.57;;;;;;;;;;5027251;28;20216;-64
2023/08/02 02:20:55;;;;;;;6.45;4.88;;;;;;;;;;5027012;28;20215;-64
2023/08/02 02:23:21;;;;;;;8.88;4.72;;;;;;;;;;5027579;28;20230;-64
2023/08/02 02:25:48;;;;;;;8.65;4.97;;;;;;;;;;5026436;28;20204;-64
2023/08/02 02:28:14;;;;;;;5.35;5.03;;;;;;;;;;5027577;28;20223;-63
2023/08/02 02:30:43;;;;;;;5.20;4.70;;;;;;;;;;5027185;28;20243;-63
2023/08/02 02:33:10;;;;;;;8.27;5.60;;;;;;;;;;5026324;28;20682;-64
2023/08/02 02:35:36;;;;;;;6.40;5.90;;;;;;;;;;5026543;28;20665;-65
2023/08/02 02:38:03;;;;;;;5.70;5.05;;;;;;;;;;5027195;28;20232;-63
2023/08/02 02:40:29;;;;;;;9.32;6.18;;;;;;;;;;5026900;28;20670;-65
2023/08/02 02:42:55;;;;;;;10.27;5.63;;;;;;;;;;5026908;28;20266;-65
2023/08/02 02:45:22;;;;;;;13.25;5.22;;;;;;;;;;5026576;28;20210;-66
2023/08/02 02:47:50;;;;;;;6.65;4.88;;;;;;;;;;5026752;28;20756;-64
2023/08/02 02:50:17;;;;;;;4.85;4.55;;;;;;;;;;5024613;28;20231;-65
2023/08/02 02:52:43;;;;;;;4.97;4.47;;;;;;;;;;5026759;28;20227;-64
2023/08/02 02:55:10;;;;;;;4.55;4.03;;;;;;;;;;5026472;28;20222;-63
2023/08/02 02:57:36;;;;;;;9.13;4.97;;;;;;;;;;5026648;28;20607;-64
2023/08/02 03:00:05;;;;;;;8.75;4.93;;;;;;;;;;5026516;28;20208;-65
2023/08/02 03:02:31;;;;;;;5.88;4.80;;;;;;;;;;5027241;28;20204;-65
2023/08/02 03:04:59;;;;;;;4.70;4.40;;;;;;;;;;5026615;28;20380;-66
2023/08/02 03:07:25;;;;;;;7.88;4.85;;;;;;;;;;5027101;28;20257;-63
2023/08/02 03:09:52;;;;;;;4.80;4.50;;;;;;;;;;5027291;28;20195;-64
2023/08/02 03:12:18;;;;;;;5.90;4.50;;;;;;;;;;5027689;28;20216;-64
2023/08/02 03:14:46;;;;;;;5.80;4.60;;;;;;;;;;5026760;28;20231;-65
2023/08/02 03:17:13;;;;;;;4.97;4.68;;;;;;;;;;5026837;28;20777;-63
2023/08/02 03:19:39;;;;;;;6.32;5.03;;;;;;;;;;5026776;28;20207;-64
2023/08/02 03:22:07;;;;;;;7.18;4.45;;;;;;;;;;5026993;28;20219;-63
2023/08/02 03:24:34;;;;;;;5.15;4.75;;;;;;;;;;5026799;28;20235;-63
2023/08/02 03:27:00;;;;;;;8.02;5.00;;;;;;;;;;5026882;28;20261;-65
2023/08/02 03:29:27;;;;;;;4.57;4.13;;;;;;;;;;5027744;28;20195;-64
2023/08/02 03:31:53;;;;;;;5.07;4.68;;;;;;;;;;5026579;28;20203;-66
2023/08/02 03:34:20;;;;;;;5.25;4.88;;;;;;;;;;5025835;28;20218;-65
2023/08/02 03:36:46;;;;;;;8.55;5.00;;;;;;;;;;5026718;28;20196;-62
2023/08/02 03:39:14;;;;;;;5.15;4.75;;;;;;;;;;5026633;28;20661;-64
2023/08/02 03:41:40;;;;;;;5.00;4.68;;;;;;;;;;5026872;28;20636;-64
2023/08/02 03:44:07;;;;;;;6.65;4.68;;;;;;;;;;5026753;28;20669;-62
2023/08/02 03:46:33;;;;;;;6.93;4.90;;;;;;;;;;5026715;28;20196;-62
2023/08/02 03:49:00;;;;;;;5.22;4.93;;;;;;;;;;5026280;28;20305;-64
2023/08/02 03:51:27;;;;;;;5.40;5.00;;;;;;;;;;5026082;28;20234;-64
2023/08/02 03:53:53;;;;;;;7.15;5.45;;;;;;;;;;5026126;28;20279;-64
2023/08/02 03:56:21;;;;;;;6.55;5.45;;;;;;;;;;5025695;28;20246;-63
2023/08/02 03:58:48;;;;;;;8.77;5.85;;;;;;;;;;5026740;28;20289;-64
2023/08/02 04:01:14;;;;;;;14.82;5.80;;;;;;;;;;5026222;28;20297;-64
2023/08/02 04:03:40;;;;;;;6.18;5.63;;;;;;;;;;5025016;28;20357;-64
2023/08/02 04:06:07;;;;;;;6.55;5.68;;;;;;;;;;5025908;28;20574;-63
2023/08/02 04:08:33;;;;;;;8.27;5.93;;;;;;;;;;5026064;28;20208;-62
2023/08/02 04:11:03;;;;;;;7.90;5.93;;;;;;;;;;5026241;28;20204;-63
2023/08/02 04:13:31;;;;;;;21.90;14.15;;;;;;;;;;5026315;28;20257;-62
2023/08/02 04:15:57;;;;;;;9.65;8.75;;;;;;;;;;5026314;28;20211;-64
2023/08/02 04:18:24;;;;;;;8.65;7.90;;;;;;;;;;5026405;28;20228;-64
2023/08/02 04:20:50;;;;;;;7.72;6.00;;;;;;;;;;5025669;28;20235;-64
2023/08/02 04:23:16;;;;;;;6.50;5.85;;;;;;;;;;5026173;28;20721;-64
2023/08/02 04:25:43;;;;;;;7.40;6.68;;;;;;;;;;5025978;28;20231;-64
2023/08/02 04:28:09;;;;;;;17.13;12.52;;;;;;;;;;5028445;28;20254;-64
2023/08/02 04:30:37;;;;;;;14.23;10.57;;;;;;;;;;5029555;28;20770;-64
2023/08/02 04:33:03;;;;;;;7.72;6.90;;;;;;;;;;5029251;28;20231;-65
2023/08/02 04:35:30;;;;;;;7.05;5.50;;;;;;;;;;5029538;28;20268;-65
2023/08/02 04:37:57;;;;;;;7.22;6.63;;;;;;;;;;5030025;28;20207;-62
2023/08/02 04:40:23;;;;;;;25.58;18.55;;;;;;;;;;5030084;28;20231;-64
2023/08/02 04:42:51;;;;;;;21.23;18.42;;;;;;;;;;5029298;28;20624;-64
2023/08/02 04:45:17;;;;;;;21.35;15.20;;;;;;;;;;5029426;28;20208;-64
2023/08/02 04:47:45;;;;;;;13.38;8.05;;;;;;;;;;5029894;28;20196;-65
2023/08/02 04:50:12;;;;;;;9.55;6.80;;;;;;;;;;5029319;28;20285;-64
2023/08/02 04:52:38;;;;;;;8.80;6.32;;;;;;;;;;5028076;28;20223;-63
2023/08/02 04:55:06;;;;;;;11.52;6.90;;;;;;;;;;5029138;28;20639;-64
2023/08/02 04:57:32;;;;;;;7.20;5.97;;;;;;;;;;5029612;28;20631;-65
2023/08/02 04:59:59;;;;;;;7.30;6.70;;;;;;;;;;5028927;28;20254;-65
2023/08/02 05:02:29;;;;;;;6.43;6.00;;;;;;;;;;5028899;28;20623;-64
2023/08/02 05:04:56;;;;;;;8.32;6.30;;;;;;;;;;5028865;28;20236;-65
2023/08/02 05:07:23;;;;;;;10.40;6.18;;;;;;;;;;5030115;28;20208;-64
2023/08/02 05:09:49;;;;;;;11.43;6.43;;;;;;;;;;5028558;28;20269;-64
2023/08/02 05:12:16;;;;;;;5.88;5.47;;;;;;;;;;5028947;28;20692;-62
2023/08/02 05:14:42;;;;;;;9.65;5.55;;;;;;;;;;5029080;28;20732;-64
2023/08/02 05:17:08;;;;;;;6.68;6.07;;;;;;;;;;5029924;28;20691;-63
2023/08/02 05:19:35;;;;;;;14.60;6.13;;;;;;;;;;5030266;28;20251;-65
2023/08/02 05:22:03;;;;;;;9.98;6.20;;;;;;;;;;5029499;28;20234;-64
2023/08/02 05:24:29;;;;;;;10.32;6.18;;;;;;;;;;5029686;28;20227;-65
2023/08/02 05:26:56;;;;;;;7.45;5.72;;;;;;;;;;5027749;28;20581;-64
2023/08/02 05:29:22;;;;;;;7.82;5.93;;;;;;;;;;5028683;28;20231;-64
2023/08/02 05:31:49;;;;;;;18.30;7.88;;;;;;;;;;5028608;28;20203;-65
2023/08/02 05:34:15;;;;;;;7.78;6.40;;;;;;;;;;5028597;28;20199;-65
2023/08/02 05:36:41;;;;;;;8.65;6.40;;;;;;;;;;5028553;28;20204;-64
2023/08/02 05:39:09;;;;;;;8.32;6.50;;;;;;;;;;5028054;28;20219;-64
2023/08/02 05:41:36;;;;;;;8.95;5.80;;;;;;;;;;5028944;28;20208;-64
2023/08/02 05:44:02;;;;;;;9.45;6.07;;;;;;;;;;5028806;28;20285;-62
2023/08/02 05:46:29;;;;;;;11.73;6.07;;;;;;;;;;5029808;28;20696;-63
2023/08/02 05:48:56;;;;;;;12.15;6.15;;;;;;;;;;5029311;28;20223;-64
2023/08/02 05:51:23;;;;;;;9.13;5.95;;;;;;;;;;5028631;28;20254;-63
2023/08/02 05:53:49;;;;;;;7.63;6.82;;;;;;;;;;5029085;28;20307;-65
2023/08/02 05:56:17;;;;;;;7.05;6.35;;;;;;;;;;5027872;28;20718;-65
2023/08/02 05:58:43;;;;;;;8.63;6.05;;;;;;;;;;5028373;28;20716;-65
2023/08/02 06:01:10;;;;;;;6.07;5.60;;;;;;;;;;5027606;28;20263;-65
2023/08/02 06:03:36;;;;;;;11.35;7.03;;;;;;;;;;5027699;28;20663;-63
2023/08/02 06:06:03;;;;;;;8.68;7.43;;;;;;;;;;5028113;28;20323;-64
2023/08/02 06:08:29;;;;;;;8.43;6.32;;;;;;;;;;5027973;28;20231;-66
2023/08/02 06:10:56;;;;;;;15.88;7.03;;;;;;;;;;5027586;28;20233;-66
2023/08/02 06:13:24;;;;;;;7.82;7.13;;;;;;;;;;5027650;28;20206;-66
2023/08/02 06:15:51;;;;;;;9.65;7.50;;;;;;;;;;5027482;28;20644;-65
2023/08/02 06:18:17;;;;;;;8.55;6.82;;;;;;;38.56;nan;94602.72;5027270;28;20207;-65
2023/08/02 06:20:44;;;;;;;10.43;6.50;;;;;;;;;;5027132;28;20273;-67
2023/08/02 06:23:11;;;;;;;8.43;7.20;;;;;;;42.92;nan;94585.72;5028430;28;20637;-64
2023/08/02 06:25:38;;;;;;;8.27;6.55;;;;;;;44.24;nan;94586.56;5027552;28;20262;-65
2023/08/02 06:28:04;;;;;;;11.80;6.70;;;;;;;44.54;nan;94579.53;5027654;28;20717;-66
2023/08/02 06:30:32;;;;;;;7.97;6.93;;;;;;;;;;5027728;28;20196;-66
2023/08/02 06:32:59;;;;;;;8.05;6.78;;;;;;;46.52;nan;94564.56;5027297;28;20192;-66
2023/08/02 06:35:26;;;;;;;7.65;7.10;;;;;;;46.17;nan;94563.84;5027031;28;20736;-67
2023/08/02 06:37:52;;;;;;;8.27;7.18;;;;;;;;;;5027394;28;20204;-66
2023/08/02 06:40:19;;;;;;;9.18;8.38;;;;;;;45.68;nan;94566.75;5026339;28;20319;-67
2023/08/02 06:42:46;;;;;;;8.63;7.72;;;;;;;;;;5027678;28;20286;-67
2023/08/02 06:45:12;;;;;;;8.05;7.20;;;;;;;46.53;nan;94558.09;5027431;28;20200;-67
2023/08/02 06:47:40;;;;;;;7.95;7.22;;;;;;;45.14;nan;94556.94;5027059;28;20223;-65
2023/08/02 06:50:08;;;;;;;10.18;7.45;;;;;;;45.12;nan;94563.66;5026740;28;20747;-66
2023/08/02 06:52:34;;;;;;;9.02;8.32;;;;;;;;;;5026818;28;20235;-64
2023/08/02 06:55:01;;;;;;;7.75;7.20;;;;;;;45.17;nan;94551.03;5027001;28;20234;-66
2023/08/02 06:57:31;;;;;;;8.63;7.75;;;;;;;;;;5026982;28;20677;-64
2023/08/02 06:59:57;;;;;;;9.32;8.60;;;;;;;;;;5026946;28;20220;-67
2023/08/02 07:02:24;;;;;;;8.00;7.55;;;;;;;45.88;nan;94560.38;5027291;28;20669;-66
2023/08/02 07:04:52;;;;;;;9.48;7.55;;;;;;;46.20;nan;94557.13;5026679;28;20313;-67
2023/08/02 07:07:19;;;;;;;8.07;7.30;;;;;;;46.35;nan;94562.31;5026474;28;20688;-67
2023/08/02 07:09:48;;;;;;;8.57;7.93;;;;;;;47.64;nan;94553.78;5026898;28;20245;-66
2023/08/02 07:12:15;;;;;;;8.88;7.97;;;;;;;48.99;nan;94556.06;5026099;28;20639;-66
2023/08/02 07:14:41;;;;;;;8.68;7.72;;;;;;;49.27;nan;94567.53;5027155;28;20620;-66
2023/08/02 07:17:08;;;;;;;8.10;7.40;;;;;;;49.59;nan;94565.72;5026546;28;20210;-66
2023/08/02 07:19:35;;;;;;;9.10;7.43;;;;;;;50.36;nan;94558.03;5027011;28;20281;-66
2023/08/02 07:22:03;;;;;;;7.88;7.35;;;;;;;50.45;nan;94557.25;5026289;28;20199;-66
2023/08/02 07:24:29;;;;;;;7.90;7.38;;;;;;;50.64;nan;94549.69;5027133;28;20203;-68
2023/08/02 07:26:56;;;;;;;8.35;7.22;;;;;;;50.24;nan;94555.13;5026134;28;20775;-65
2023/08/02 07:29:23;;;;;;;8.05;7.45;;;;;;;50.68;nan;94566.88;5026596;28;20273;-67
2023/08/02 07:31:49;;;;;;;8.85;7.30;;;;;;;51.15;nan;94548.16;5026911;28;20638;-67
2023/08/02 07:34:16;;;;;;;7.60;7.00;;;;;;;51.74;nan;94549.22;5026363;28;20603;-66
2023/08/02 07:36:43;;;;;;;8.80;8.02;;;;;;;52.95;nan;94560.38;5026851;28;20207;-67
2023/08/02 07:39:11;;;;;;;8.13;7.65;;;;;;;52.44;nan;94547.09;5025558;28;20231;-68
2023/08/02 07:41:37;;;;;;;10.07;7.90;;;;;;;51.84;nan;94548.09;5026396;28;20678;-66
2023/08/02 07:44:04;;;;;;;11.95;9.88;;;;;;;51.75;nan;94550.81;5027658;28;20199;-67
2023/08/02 07:46:31;;;;;;;12.82;11.57;;;;;;;51.18;nan;94544.81;5026525;28;20281;-67
2023/08/02 07:48:58;;;;;;;11.80;10.55;;;;;;;50.74;nan;94554.78;5025948;28;20249;-67
2023/08/02 07:51:24;;;;;;;11.57;10.40;;;;;;;50.69;nan;94569.28;5025477;28;20308;-66
2023/08/02 07:53:51;;;;;;;11.55;10.48;;;;;;;50.92;nan;94550.19;5026868;28;20217;-66
2023/08/02 07:56:20;;;;;;;10.50;9.80;;;;;;;50.54;nan;94555.34;5026005;28;20231;-65
2023/08/02 07:58:47;;;;;;;10.63;9.82;;;;;;;50.76;nan;94546.34;5026188;28;20219;-65
2023/08/02 08:01:13;;;;;;;9.30;8.40;;;;;;;50.97;nan;94550.88;5026763;28;20247;-67
2023/08/02 08:03:40;;;;;;;10.55;9.05;;;;;;;50.89;nan;94546.22;5028668;28;20238;-68
2023/08/02 08:06:11;;;;;;;9.68;8.88;;;;;;;50.90;nan;94525.38;5030399;28;20887;-66
2023/08/02 08:08:37;;;;;;;8.57;8.10;;;;;;;51.11;nan;94541.78;5029457;28;20669;-68
2023/08/02 08:11:04;;;;;;;8.82;8.23;;;;;;;50.73;nan;94541.59;5030687;28;20199;-65
2023/08/02 08:13:33;;;;;;;8.32;7.80;;;;;;;50.49;nan;94542.00;5030364;28;20669;-67
2023/08/02 08:16:00;;;;;;;8.02;7.32;;;;;;;49.10;nan;94540.41;5028983;28;20214;-65
2023/08/02 08:18:27;;;;;;;24.30;22.00;;;;;;;46.57;nan;94535.69;5029075;28;20207;-66
2023/08/02 08:20:53;;;;;;;19.40;17.75;;;;;;;48.43;nan;94544.81;5028346;28;20230;-67
2023/08/02 08:23:20;;;;;;;9.75;6.93;;;;;;;49.93;nan;94559.75;5029978;28;20272;-67
2023/08/02 08:25:47;;;;;;;22.63;20.73;;;;;;;49.56;nan;94563.63;5029249;28;20223;-68
2023/08/02 08:28:13;;;;;;;13.98;12.80;;;;;;;46.71;nan;94541.22;5029611;28;20199;-67
2023/08/02 08:30:41;;;;;;;8.43;7.78;;;;;;;45.18;nan;94546.47;5029835;28;20214;-67
2023/08/02 08:33:10;;;;;;;7.85;7.20;;;;;;;44.35;nan;94537.22;5029621;28;20696;-67
2023/08/02 08:35:37;;;;;;;8.40;7.90;;;;;;;44.83;nan;94545.59;5029506;28;20199;-69
2023/08/02 08:38:03;;;;;;;16.90;8.95;;;;;;;44.58;nan;94537.66;5029663;28;20196;-67
2023/08/02 08:40:32;;;;;;;8.45;7.90;;;;;;;45.66;nan;94542.06;5028949;28;20681;-68
2023/08/02 08:43:00;;;;;;;9.27;8.55;;;;;;;46.12;nan;94545.09;5027592;28;20195;-67
2023/08/02 08:45:27;;;;;;;7.70;7.18;;;;;;;45.83;nan;94547.78;5029768;28;20207;-66
2023/08/02 08:47:55;;;;;;;8.38;7.72;;;;;;;45.36;nan;94543.09;5030025;28;20269;-67
2023/08/02 08:50:22;;;;;;;8.48;7.68;;;;;;;45.85;nan;94542.16;5028788;28;20235;-65
2023/08/02 08:52:51;;;;;;;9.75;7.90;;;;;;;46.96;nan;94538.16;5029698;28;20311;-67
2023/08/02 08:55:18;;;;;;;12.35;7.97;;;;;;;47.00;nan;94536.47;5030401;28;20202;-66
2023/08/02 08:57:46;;;;;;;7.40;6.88;;;;;;;45.00;nan;94540.69;5029135;28;20202;-67
2023/08/02 09:00:14;;;;;;;8.10;7.35;;;;;;;43.73;nan;94533.13;5028972;28;20277;-67
2023/08/02 09:02:43;;;;;;;7.47;7.07;;;;;;;43.44;nan;94534.72;5029303;28;20204;-67
2023/08/02 09:05:12;;;;;;;8.32;7.55;;;;;;;44.15;nan;94539.97;5029095;28;20235;-67
2023/08/02 09:07:38;;;;;;;7.97;7.28;;;;;;;44.74;nan;94536.53;5026468;28;20261;-69
2023/08/02 09:10:06;;;;;;;12.77;11.50;;;;;;;45.01;nan;94520.03;5027666;28;20203;-69
2023/08/02 09:12:43;;;;;;;8.88;8.20;;;;;;;44.69;nan;94537.34;5029128;28;20206;-69
2023/08/02 09:15:10;;;;;;;8.30;7.60;;;;;;;43.80;nan;94532.03;5027960;28;20203;-70
2023/08/02 09:17:47;;;;;;;7.53;7.13;;;;;;;41.98;nan;94533.22;5028052;28;20199;-68
2023/08/02 09:20:16;;;;;;;7.38;6.78;;;;;;;41.38;nan;94529.06;5028045;28;20662;-69
2023/08/02 09:22:43;;;;;;;7.30;6.90;;;;;;;39.89;nan;94527.69;5027222;28;20265;-69
2023/08/02 09:25:19;;;;;;;8.93;8.35;;;;;;;;;;5028377;28;21540;-68
2023/08/02 09:27:46;;;;;;;6.57;5.30;;;;;;;;;;5026045;28;20231;-70
2023/08/02 09:30:23;;;;;;;6.50;6.00;;;;;;;37.73;nan;94541.00;5027747;28;20232;-67
2023/08/02 09:32:58;;;;;;;6.20;5.70;;;;;;;;;;5028399;28;20207;-67
2023/08/02 09:35:26;;;;;;;11.38;7.13;;;;;;;36.17;nan;94541.16;5026275;28;20294;-69
2023/08/02 09:37:53;;;;;;;6.60;6.20;;;;;;;;;;5025295;28;20281;-68
2023/08/02 09:40:34;;;;;;;6.95;6.35;;;;;;;37.02;nan;94541.91;5026840;28;20336;-67
2023/08/02 09:43:02;;;;;;;6.30;5.80;;;;;;;36.16;nan;94544.84;5026944;28;20286;-66
2023/08/02 09:45:32;;;;;;;9.20;6.22;;;;;;;35.60;nan;94545.03;5026264;28;20290;-66
2023/08/02 09:47:58;;;;;;;5.65;5.25;;;;;;;35.25;nan;94542.03;5026477;28;20767;-66
2023/08/02 09:50:27;;;;;;;5.63;5.13;;;;;;;34.52;nan;94536.41;5025419;28;20269;-66
2023/08/02 09:52:54;;;;;;;5.80;5.50;;;;;;;34.25;nan;94547.06;5027253;28;20223;-67
2023/08/02 09:55:21;;;;;;;5.25;5.05;;;;;;;;;;5027754;28;20210;-66
2023/08/02 09:57:48;;;;;;;6.60;5.85;;;;;;;;;;5026695;28;20200;-65
2023/08/02 10:00:15;;;;;;;5.60;5.20;;;;;;;;;;5027331;28;20709;-65
2023/08/02 10:02:42;;;;;;;6.15;5.63;;;;;;;32.35;nan;94517.09;5026071;28;20301;-66
2023/08/02 10:05:12;;;;;;;5.28;4.65;;;;;;;;;;5027223;28;20239;-67
2023/08/02 10:07:43;;;;;;;5.82;5.43;;;;;;;;;;5027128;28;20206;-66
2023/08/02 10:10:13;;;;;;;6.68;5.30;;;;;;;;;;5027082;28;20290;-66
2023/08/02 10:12:39;;;;;;;6.18;5.68;;;;;;;;;;5027532;28;20199;-67
2023/08/02 10:15:06;;;;;;;9.85;5.95;;;;;;;;;;5026289;28;20250;-66
2023/08/02 10:17:33;;;;;;;8.65;7.20;;;;;;;;;;5027535;28;20199;-67
2023/08/02 10:20:00;;;;;;;7.50;6.50;;;;;;;;;;5027780;28;20231;-66
2023/08/02 10:22:26;;;;;;;6.65;5.82;;;;;;;;;;5027271;28;20218;-66
2023/08/02 10:24:55;;;;;;;5.75;5.32;;;;;;;;;;5027503;28;20200;-65
2023/08/02 10:27:21;;;;;;;5.45;5.03;;;;;;;;;;5027797;28;20233;-63
2023/08/02 10:29:48;;;;;;;4.75;4.35;;;;;;;;;;5027047;28;20227;-64
2023/08/02 10:32:16;;;;;;;7.38;5.00;;;;;;;;;;5027351;28;20199;-66
2023/08/02 10:34:47;;;;;;;5.70;4.63;;;;;;;;;;5027541;28;20690;-64
2023/08/02 10:37:13;;;;;;;5.75;4.47;;;;;;;;;;5026905;28;20739;-66
2023/08/02 10:39:53;;;;;;;7.75;5.00;;;;;;;;;;5026170;28;20207;-64
2023/08/02 10:42:21;;;;;;;5.03;4.72;;;;;;;;;;5027299;28;20211;-66
2023/08/02 10:45:08;;;;;;;4.63;4.32;;;;;;;;;;5027332;28;20811;-66
2023/08/02 10:47:35;;;;;;;5.40;4.90;;;;;;;;;;5026915;28;20239;-66
2023/08/02 10:50:03;;;;;;;6.88;4.80;;;;;;;;;;5026888;28;20356;-66
2023/08/02 10:52:30;;;;;;;6.25;5.07;;;;;;;;;;5027579;28;20227;-66
2023/08/02 10:55:08;;;;;;;4.90;4.60;;;;;;;;;;5027085;28;20289;-66
2023/08/02 10:57:35;;;;;;;5.35;4.65;;;;;;;;;;5026643;28;20294;-66
2023/08/02 11:00:13;;;;;;;4.43;4.13;;;;;;;;;;5026725;28;20676;-67
2023/08/02 11:02:44;;;;;;;7.03;4.43;;;;;;;;;;5027312;28;20204;-67
2023/08/02 11:05:11;;;;;;;6.30;5.18;;;;;;;;;;5026958;28;20240;-65
2023/08/02 11:07:37;;;;;;;4.70;4.40;;;;;;;;;;5026900;28;20751;-68
2023/08/02 11:10:05;;;;;;;5.28;4.88;;;;;;;;;;5028412;28;20261;-67
2023/08/02 11:12:34;;;;;;;6.00;5.38;;;;;;;;;;5026489;28;20212;-67
2023/08/02 11:15:01;;;;;;;4.85;4.28;;;;;;;;;;5026307;28;20204;-64
2023/08/02 11:17:27;;;;;;;9.00;4.47;;;;;;;;;;5027227;28;20200;-67
2023/08/02 11:19:55;;;;;;;5.07;4.68;;;;;;;;;;5027685;28;20199;-67
2023/08/02 11:22:22;;;;;;;4.90;4.55;;;;;;;;;;5027709;28;20252;-66
2023/08/02 11:24:50;;;;;;;4.45;4.15;;;;;;;;;;5027142;28;20758;-67
2023/08/02 11:27:18;;;;;;;9.27;4.75;;;;;;;;;;5026510;28;21723;-67
2023/08/02 11:29:57;;;;;;;5.47;4.57;;;;;;;;;;5027383;28;20269;-66
2023/08/02 11:32:24;;;;;;;4.30;4.10;;;;;;;;;;5026407;28;20768;-66
2023/08/02 11:34:50;;;;;;;4.63;4.28;;;;;;;;;;5025409;28;20208;-67
2023/08/02 11:37:18;;;;;;;4.38;4.10;;;;;;;;;;5025451;28;20207;-65
2023/08/02 11:39:51;;;;;;;5.43;4.10;;;;;;;;;;5029438;28;20203;-64
2023/08/02 11:42:17;;;;;;;5.15;4.68;;;;;;;;;;5028660;28;21044;-66
2023/08/02 11:44:44;;;;;;;4.53;4.28;;;;;;;;;;5029378;28;20231;-65
2023/08/02 11:47:12;;;;;;;4.95;4.65;;;;;;;;;;5029205;28;20206;-65
2023/08/02 11:49:48;;;;;;;4.57;4.22;;;;;;;;;;5031018;28;20226;-64
2023/08/02 11:52:14;;;;;;;4.72;4.53;;;;;;;;;;5028774;28;20866;-65
2023/08/02 11:54:41;;;;;;;4.70;4.38;;;;;;;;;;5030615;28;20206;-66
2023/08/02 11:57:07;;;;;;;4.70;4.35;;;;;;;;;;5030995;28;20230;-66
2023/08/02 11:59:34;;;;;;;5.80;5.47;;;;;;;;;;5028630;28;20208;-67
2023/08/02 12:02:00;;;;;;;4.88;4.47;;;;;;;;;;5028528;28;20227;-65
2023/08/02 12:04:38;;;;;;;4.50;4.20;;;;;;;;;;5028686;28;20293;-63
2023/08/02 12:07:05;;;;;;;5.07;4.78;;;;;;;30.28;nan;94507.06;5028438;28;20649;-66
2023/08/02 12:09:40;;;;;;;3.92;3.72;;;;;;;30.33;nan;94456.69;5028978;28;20204;-66
2023/08/02 12:12:07;;;;;;;5.32;4.78;;;;;;;;;;5028769;28;20454;-65
2023/08/02 12:14:33;;;;;;;8.50;3.83;;;;;;;;;;5029647;28;20223;-64
2023/08/02 12:17:00;;;;;;;4.75;4.40;;;;;;;;;;5030130;28;20235;-66
2023/08/02 12:19:39;;;;;;;4.35;4.13;;;;;;;;;;5030095;28;20203;-66
2023/08/02 12:22:05;;;;;;;5.32;4.80;;;;;;;;;;5029326;28;20223;-66
2023/08/02 12:24:32;;;;;;;4.38;4.07;;;;;;;;;;5030134;28;20235;-66
2023/08/02 12:27:11;;;;;;;4.63;4.32;;;;;;;;;;5030300;28;20261;-65
2023/08/02 12:29:37;;;;;;;4.63;4.32;;;;;;;;;;5030246;28;20274;-65
2023/08/02 12:32:04;;;;;;;7.13;3.95;;;;;;;;;;5029815;28;20195;-65
2023/08/02 12:34:30;;;;;;;4.20;4.00;;;;;;;;;;5030101;28;20266;-65
2023/08/02 12:36:59;;;;;;;4.40;4.13;;;;;;;;;;5027621;28;20640;-66
2023/08/02 12:39:25;;;;;;;4.57;4.22;;;;;;;;;;5030017;28;20257;-65
2023/08/02 12:41:52;;;;;;;4.10;3.90;;;;;;;;;;5027758;28;20259;-65
2023/08/02 12:44:18;;;;;;;4.93;4.55;;;;;;;;;;5029631;28;20211;-64
2023/08/02 12:46:45;;;;;;;4.68;4.28;;;;;;;;;;5028969;28;20585;-66
2023/08/02 12:49:11;;;;;;;8.77;5.10;;;;;;;;;;5028308;28;20239;-65
2023/08/02 12:51:38;;;;;;;4.65;4.35;;;;;;;;;;5029170;28;20693;-64
2023/08/02 12:54:06;;;;;;;4.70;4.40;;;;;;;;;;5029149;28;20294;-66
2023/08/02 12:56:33;;;;;;;4.45;4.25;;;;;;;;;;5029004;28;20653;-64
2023/08/02 12:58:59;;;;;;;4.18;3.97;;;;;;;;;;5029703;28;20294;-65
2023/08/02 13:01:26;;;;;;;9.80;4.50;;;;;;;;;;5029203;28;20263;-67
2023/08/02 13:03:52;;;;;;;4.78;4.13;;;;;;;;;;5028735;28;20227;-67
2023/08/02 13:06:19;;;;;;;4.57;4.28;;;;;;;;;;5028136;28;20235;-65
2023/08/02 13:08:45;;;;;;;4.00;3.80;;;;;;;;;;5029245;28;20253;-65
2023/08/02 13:11:13;;;;;;;4.78;4.47;;;;;;;;;;5029141;28;20196;-66
2023/08/02 13:13:39;;;;;;;4.80;4.38;;;;;;;;;;5029214;28;20249;-66
2023/08/02 13:16:06;;;;;;;6.28;3.97;;;;;;;;;;5028478;28;20728;-65
2023/08/02 13:18:32;;;;;;;4.75;4.13;;;;;;;;;;5029150;28;20200;-65
2023/08/02 13:20:59;;;;;;;5.38;4.88;;;;;;;;;;5028799;28;20224;-66
2023/08/02 13:23:26;;;;;;;6.20;4.75;;;;;;;30.45;nan;94491.91;5028836;28;20364;-65
2023/08/02 13:25:53;;;;;;;4.63;4.22;;;;;;;;;;5028584;28;20684;-66
2023/08/02 13:28:20;;;;;;;4.25;4.00;;;;;;;;;;5028483;28;20678;-65
2023/08/02 13:30:47;;;;;;;5.40;4.95;;;;;;;;;;5027575;28;20706;-65
2023/08/02 13:33:13;;;;;;;5.55;4.82;;;;;;;;;;5027760;28;20639;-66
2023/08/02 13:35:40;;;;;;;6.15;5.22;;;;;;;;;;5027191;28;20289;-67
2023/08/02 13:38:07;;;;;;;5.07;4.72;;;;;;;;;;5026493;28;20686;-66
2023/08/02 13:40:33;;;;;;;8.07;4.40;;;;;;;;;;5026501;28;20223;-67
2023/08/02 13:43:00;;;;;;;5.15;4.72;;;;;;;;;;5026927;28;20786;-67
2023/08/02 13:45:27;;;;;;;4.55;4.25;;;;;;;;;;5026732;28;20235;-66
2023/08/02 13:47:54;;;;;;;4.03;3.83;;;;;;;30.66;nan;94415.91;5026613;28;20541;-67
2023/08/02 13:50:21;;;;;;;4.85;4.50;;;;;;;;;;5026250;28;20212;-67
2023/08/02 13:52:47;;;;;;;5.07;4.38;;;;;;;;;;5026418;28;20251;-67